sensor_id;sensor_type;location;lat;lon;timestamp;temperature;humidity
69261;DHT22;56378;52.404;20.816;2024-03-17T00:01:20;6.10;98.80
69261;DHT22;56378;52.404;20.816;2024-03-17T00:03:46;6.00;97.60
69261;DHT22;56378;52.404;20.816;2024-03-17T00:06:12;6.00;95.00
69261;DHT22;56378;52.404;20.816;2024-03-17T00:08:38;6.00;92.90
69261;DHT22;56378;52.404;20.816;2024-03-17T00:11:04;6.00;93.10
69261;DHT22;56378;52.404;20.816;2024-03-17T00:13:30;6.00;93.90
69261;DHT22;56378;52.404;20.816;2024-03-17T00:15:57;6.00;94.10
69261;DHT22;56378;52.404;20.816;2024-03-17T00:18:23;5.90;94.50
69261;DHT22;56378;52.404;20.816;2024-03-17T00:20:51;5.90;95.10
69261;DHT22;56378;52.404;20.816;2024-03-17T00:23:16;5.90;94.90
69261;DHT22;56378;52.404;20.816;2024-03-17T00:25:42;5.90;94.10
69261;DHT22;56378;52.404;20.816;2024-03-17T00:28:08;5.90;93.20
69261;DHT22;56378;52.404;20.816;2024-03-17T00:30:34;5.90;91.60
69261;DHT22;56378;52.404;20.816;2024-03-17T00:33:02;5.80;89.60
69261;DHT22;56378;52.404;20.816;2024-03-17T00:35:27;5.80;89.20
69261;DHT22;56378;52.404;20.816;2024-03-17T00:37:53;5.80;88.80
69261;DHT22;56378;52.404;20.816;2024-03-17T00:40:19;5.70;89.50
69261;DHT22;56378;52.404;20.816;2024-03-17T00:42:45;5.70;89.50
69261;DHT22;56378;52.404;20.816;2024-03-17T00:45:11;5.70;88.80
69261;DHT22;56378;52.404;20.816;2024-03-17T00:47:38;5.60;89.80
69261;DHT22;56378;52.404;20.816;2024-03-17T00:50:05;5.60;90.40
69261;DHT22;56378;52.404;20.816;2024-03-17T00:52:32;5.60;89.10
69261;DHT22;56378;52.404;20.816;2024-03-17T00:54:58;5.60;89.20
69261;DHT22;56378;52.404;20.816;2024-03-17T00:57:24;5.60;89.80
69261;DHT22;56378;52.404;20.816;2024-03-17T00:59:50;5.50;90.30
69261;DHT22;56378;52.404;20.816;2024-03-17T01:02:18;5.40;90.70
69261;DHT22;56378;52.404;20.816;2024-03-17T01:04:43;5.40;90.60
69261;DHT22;56378;52.404;20.816;2024-03-17T01:07:10;5.40;91.30
69261;DHT22;56378;52.404;20.816;2024-03-17T01:09:36;5.30;90.00
69261;DHT22;56378;52.404;20.816;2024-03-17T01:12:02;5.20;90.40
69261;DHT22;56378;52.404;20.816;2024-03-17T01:14:29;5.10;90.80
69261;DHT22;56378;52.404;20.816;2024-03-17T01:16:55;5.00;91.00
69261;DHT22;56378;52.404;20.816;2024-03-17T01:19:22;4.80;92.10
69261;DHT22;56378;52.404;20.816;2024-03-17T01:21:47;4.70;93.20
69261;DHT22;56378;52.404;20.816;2024-03-17T01:24:13;4.60;93.60
69261;DHT22;56378;52.404;20.816;2024-03-17T01:26:39;4.50;94.50
69261;DHT22;56378;52.404;20.816;2024-03-17T01:29:05;4.40;95.30
69261;DHT22;56378;52.404;20.816;2024-03-17T01:31:31;4.30;96.30
69261;DHT22;56378;52.404;20.816;2024-03-17T01:33:56;4.20;96.80
69261;DHT22;56378;52.404;20.816;2024-03-17T01:36:22;4.20;97.20
69261;DHT22;56378;52.404;20.816;2024-03-17T01:38:50;4.10;97.60
69261;DHT22;56378;52.404;20.816;2024-03-17T01:41:16;4.00;98.20
69261;DHT22;56378;52.404;20.816;2024-03-17T01:43:42;3.90;98.90
69261;DHT22;56378;52.404;20.816;2024-03-17T01:46:13;3.90;99.40
69261;DHT22;56378;52.404;20.816;2024-03-17T01:48:39;3.90;99.10
69261;DHT22;56378;52.404;20.816;2024-03-17T01:51:05;3.90;99.10
69261;DHT22;56378;52.404;20.816;2024-03-17T01:53:33;3.90;99.20
69261;DHT22;56378;52.404;20.816;2024-03-17T01:55:59;3.90;97.90
69261;DHT22;56378;52.404;20.816;2024-03-17T01:58:25;3.90;98.10
69261;DHT22;56378;52.404;20.816;2024-03-17T02:00:52;3.90;97.10
69261;DHT22;56378;52.404;20.816;2024-03-17T02:03:19;3.90;97.30
69261;DHT22;56378;52.404;20.816;2024-03-17T02:05:45;3.90;96.60
69261;DHT22;56378;52.404;20.816;2024-03-17T02:08:11;3.90;95.90
69261;DHT22;56378;52.404;20.816;2024-03-17T02:10:37;3.90;96.20
69261;DHT22;56378;52.404;20.816;2024-03-17T02:13:03;4.00;95.80
69261;DHT22;56378;52.404;20.816;2024-03-17T02:15:33;4.00;95.30
69261;DHT22;56378;52.404;20.816;2024-03-17T02:17:59;4.00;95.10
69261;DHT22;56378;52.404;20.816;2024-03-17T02:20:25;4.00;95.30
69261;DHT22;56378;52.404;20.816;2024-03-17T02:23:11;3.90;95.50
69261;DHT22;56378;52.404;20.816;2024-03-17T02:25:37;3.80;95.80
69261;DHT22;56378;52.404;20.816;2024-03-17T02:28:03;3.80;95.30
69261;DHT22;56378;52.404;20.816;2024-03-17T02:30:30;3.70;95.70
69261;DHT22;56378;52.404;20.816;2024-03-17T02:32:56;3.60;95.60
69261;DHT22;56378;52.404;20.816;2024-03-17T02:35:23;3.50;96.30
69261;DHT22;56378;52.404;20.816;2024-03-17T02:37:49;3.40;96.80
69261;DHT22;56378;52.404;20.816;2024-03-17T02:40:15;3.40;96.90
69261;DHT22;56378;52.404;20.816;2024-03-17T02:42:42;3.40;96.70
69261;DHT22;56378;52.404;20.816;2024-03-17T02:45:14;3.30;96.60
69261;DHT22;56378;52.404;20.816;2024-03-17T02:47:40;3.30;96.70
69261;DHT22;56378;52.404;20.816;2024-03-17T02:50:07;3.30;96.30
69261;DHT22;56378;52.404;20.816;2024-03-17T02:52:33;3.20;96.70
69261;DHT22;56378;52.404;20.816;2024-03-17T02:54:59;3.10;96.80
69261;DHT22;56378;52.404;20.816;2024-03-17T02:57:26;3.10;96.90
69261;DHT22;56378;52.404;20.816;2024-03-17T02:59:55;3.10;96.70
69261;DHT22;56378;52.404;20.816;2024-03-17T03:02:22;3.00;96.90
69261;DHT22;56378;52.404;20.816;2024-03-17T03:04:48;2.90;97.10
69261;DHT22;56378;52.404;20.816;2024-03-17T03:07:14;2.80;97.20
69261;DHT22;56378;52.404;20.816;2024-03-17T03:09:40;2.80;97.20
69261;DHT22;56378;52.404;20.816;2024-03-17T03:12:06;2.70;97.50
69261;DHT22;56378;52.404;20.816;2024-03-17T03:14:34;2.60;98.00
69261;DHT22;56378;52.404;20.816;2024-03-17T03:17:00;2.60;97.80
69261;DHT22;56378;52.404;20.816;2024-03-17T03:19:26;2.50;98.10
69261;DHT22;56378;52.404;20.816;2024-03-17T03:21:52;2.50;98.70
69261;DHT22;56378;52.404;20.816;2024-03-17T03:24:18;2.40;99.30
69261;DHT22;56378;52.404;20.816;2024-03-17T03:26:44;2.30;99.90
69261;DHT22;56378;52.404;20.816;2024-03-17T03:29:10;2.20;99.90
69261;DHT22;56378;52.404;20.816;2024-03-17T03:31:36;2.20;99.90
69261;DHT22;56378;52.404;20.816;2024-03-17T03:34:05;2.10;99.90
69261;DHT22;56378;52.404;20.816;2024-03-17T03:36:34;2.10;99.90
69261;DHT22;56378;52.404;20.816;2024-03-17T03:39:00;2.00;99.90
69261;DHT22;56378;52.404;20.816;2024-03-17T03:41:26;1.90;99.90
69261;DHT22;56378;52.404;20.816;2024-03-17T03:43:52;1.90;99.90
69261;DHT22;56378;52.404;20.816;2024-03-17T03:46:19;1.90;99.90
69261;DHT22;56378;52.404;20.816;2024-03-17T03:48:46;1.90;99.90
69261;DHT22;56378;52.404;20.816;2024-03-17T03:51:12;1.90;99.90
69261;DHT22;56378;52.404;20.816;2024-03-17T03:53:37;1.90;99.90
69261;DHT22;56378;52.404;20.816;2024-03-17T03:56:05;1.80;99.90
69261;DHT22;56378;52.404;20.816;2024-03-17T03:58:37;1.90;99.90
69261;DHT22;56378;52.404;20.816;2024-03-17T04:01:06;1.90;99.90
69261;DHT22;56378;52.404;20.816;2024-03-17T04:03:33;1.90;99.90
69261;DHT22;56378;52.404;20.816;2024-03-17T04:06:07;1.90;99.90
69261;DHT22;56378;52.404;20.816;2024-03-17T04:08:37;1.90;99.90
69261;DHT22;56378;52.404;20.816;2024-03-17T04:11:05;2.00;99.90
69261;DHT22;56378;52.404;20.816;2024-03-17T04:13:32;2.00;99.90
69261;DHT22;56378;52.404;20.816;2024-03-17T04:16:04;2.00;99.90
69261;DHT22;56378;52.404;20.816;2024-03-17T04:18:31;2.10;99.90
69261;DHT22;56378;52.404;20.816;2024-03-17T04:21:04;2.10;99.90
69261;DHT22;56378;52.404;20.816;2024-03-17T04:23:30;2.10;99.90
69261;DHT22;56378;52.404;20.816;2024-03-17T04:26:00;2.20;99.90
69261;DHT22;56378;52.404;20.816;2024-03-17T04:28:27;2.10;99.90
69261;DHT22;56378;52.404;20.816;2024-03-17T04:30:52;2.10;99.90
69261;DHT22;56378;52.404;20.816;2024-03-17T04:33:18;2.10;99.90
69261;DHT22;56378;52.404;20.816;2024-03-17T04:35:44;2.10;99.90
69261;DHT22;56378;52.404;20.816;2024-03-17T04:38:10;2.10;99.90
69261;DHT22;56378;52.404;20.816;2024-03-17T04:40:42;2.20;99.90
69261;DHT22;56378;52.404;20.816;2024-03-17T04:43:09;2.20;99.90
69261;DHT22;56378;52.404;20.816;2024-03-17T04:45:35;2.20;99.90
69261;DHT22;56378;52.404;20.816;2024-03-17T04:48:01;2.20;99.90
69261;DHT22;56378;52.404;20.816;2024-03-17T04:50:27;2.30;99.90
69261;DHT22;56378;52.404;20.816;2024-03-17T04:52:58;2.30;99.90
69261;DHT22;56378;52.404;20.816;2024-03-17T04:55:24;2.30;99.90
69261;DHT22;56378;52.404;20.816;2024-03-17T04:57:49;2.30;99.90
69261;DHT22;56378;52.404;20.816;2024-03-17T05:00:15;2.40;99.90
69261;DHT22;56378;52.404;20.816;2024-03-17T05:02:43;2.40;99.90
69261;DHT22;56378;52.404;20.816;2024-03-17T05:05:09;2.40;99.90
69261;DHT22;56378;52.404;20.816;2024-03-17T05:07:36;2.50;99.90
69261;DHT22;56378;52.404;20.816;2024-03-17T05:10:03;2.50;99.90
69261;DHT22;56378;52.404;20.816;2024-03-17T05:12:29;2.50;99.90
69261;DHT22;56378;52.404;20.816;2024-03-17T05:14:55;2.60;99.90
69261;DHT22;56378;52.404;20.816;2024-03-17T05:17:20;2.70;99.90
69261;DHT22;56378;52.404;20.816;2024-03-17T05:19:46;2.80;99.90
69261;DHT22;56378;52.404;20.816;2024-03-17T05:22:12;2.90;99.90
69261;DHT22;56378;52.404;20.816;2024-03-17T05:24:38;3.10;99.90
69261;DHT22;56378;52.404;20.816;2024-03-17T05:27:04;3.20;99.90
69261;DHT22;56378;52.404;20.816;2024-03-17T05:29:30;3.20;99.90
69261;DHT22;56378;52.404;20.816;2024-03-17T05:31:56;3.30;99.90
69261;DHT22;56378;52.404;20.816;2024-03-17T05:34:22;3.40;99.90
69261;DHT22;56378;52.404;20.816;2024-03-17T05:36:50;3.50;99.90
69261;DHT22;56378;52.404;20.816;2024-03-17T05:39:16;3.60;99.90
69261;DHT22;56378;52.404;20.816;2024-03-17T05:41:42;3.80;99.90
69261;DHT22;56378;52.404;20.816;2024-03-17T05:44:10;4.10;99.90
69261;DHT22;56378;52.404;20.816;2024-03-17T05:46:36;4.10;99.90
69261;DHT22;56378;52.404;20.816;2024-03-17T05:49:01;4.10;99.90
69261;DHT22;56378;52.404;20.816;2024-03-17T05:51:29;4.10;99.90
69261;DHT22;56378;52.404;20.816;2024-03-17T05:53:55;4.00;99.90
69261;DHT22;56378;52.404;20.816;2024-03-17T05:56:21;3.90;99.90
69261;DHT22;56378;52.404;20.816;2024-03-17T05:58:48;3.90;99.90
69261;DHT22;56378;52.404;20.816;2024-03-17T06:01:15;4.00;99.90
69261;DHT22;56378;52.404;20.816;2024-03-17T06:03:41;4.00;99.90
69261;DHT22;56378;52.404;20.816;2024-03-17T06:06:07;4.00;99.90
69261;DHT22;56378;52.404;20.816;2024-03-17T06:08:35;4.10;99.90
69261;DHT22;56378;52.404;20.816;2024-03-17T06:11:01;4.30;99.90
69261;DHT22;56378;52.404;20.816;2024-03-17T06:13:27;4.40;99.90
69261;DHT22;56378;52.404;20.816;2024-03-17T06:15:54;4.50;99.90
69261;DHT22;56378;52.404;20.816;2024-03-17T06:18:20;4.60;99.40
69261;DHT22;56378;52.404;20.816;2024-03-17T06:20:47;4.70;98.60
69261;DHT22;56378;52.404;20.816;2024-03-17T06:23:14;4.70;97.50
69261;DHT22;56378;52.404;20.816;2024-03-17T06:25:46;4.60;97.00
69261;DHT22;56378;52.404;20.816;2024-03-17T06:28:13;4.60;96.60
69261;DHT22;56378;52.404;20.816;2024-03-17T06:30:53;4.60;95.50
69261;DHT22;56378;52.404;20.816;2024-03-17T06:33:20;4.50;96.40
69261;DHT22;56378;52.404;20.816;2024-03-17T06:35:46;4.60;96.00
69261;DHT22;56378;52.404;20.816;2024-03-17T06:38:13;4.50;94.80
69261;DHT22;56378;52.404;20.816;2024-03-17T06:40:39;4.60;96.20
69261;DHT22;56378;52.404;20.816;2024-03-17T06:43:05;4.60;94.80
69261;DHT22;56378;52.404;20.816;2024-03-17T06:45:32;4.70;94.60
69261;DHT22;56378;52.404;20.816;2024-03-17T06:47:58;4.70;94.50
69261;DHT22;56378;52.404;20.816;2024-03-17T06:50:23;4.90;95.00
69261;DHT22;56378;52.404;20.816;2024-03-17T06:52:49;5.00;93.00
69261;DHT22;56378;52.404;20.816;2024-03-17T06:55:18;5.00;91.50
69261;DHT22;56378;52.404;20.816;2024-03-17T06:57:44;5.00;91.00
69261;DHT22;56378;52.404;20.816;2024-03-17T07:00:14;5.10;91.70
69261;DHT22;56378;52.404;20.816;2024-03-17T07:02:40;5.10;91.20
69261;DHT22;56378;52.404;20.816;2024-03-17T07:05:15;5.10;90.80
69261;DHT22;56378;52.404;20.816;2024-03-17T07:07:44;5.10;90.80
69261;DHT22;56378;52.404;20.816;2024-03-17T07:10:11;5.10;91.00
69261;DHT22;56378;52.404;20.816;2024-03-17T07:12:38;5.20;90.00
69261;DHT22;56378;52.404;20.816;2024-03-17T07:15:04;5.20;90.10
69261;DHT22;56378;52.404;20.816;2024-03-17T07:17:30;5.30;89.50
69261;DHT22;56378;52.404;20.816;2024-03-17T07:19:56;5.40;90.20
69261;DHT22;56378;52.404;20.816;2024-03-17T07:22:22;5.60;89.00
69261;DHT22;56378;52.404;20.816;2024-03-17T07:24:52;5.80;89.20
69261;DHT22;56378;52.404;20.816;2024-03-17T07:27:22;6.00;87.70
69261;DHT22;56378;52.404;20.816;2024-03-17T07:29:48;6.10;86.50
69261;DHT22;56378;52.404;20.816;2024-03-17T07:32:14;6.20;85.50
69261;DHT22;56378;52.404;20.816;2024-03-17T07:34:40;6.10;86.00
69261;DHT22;56378;52.404;20.816;2024-03-17T07:37:06;6.10;85.60
69261;DHT22;56378;52.404;20.816;2024-03-17T07:39:32;6.20;85.70
69261;DHT22;56378;52.404;20.816;2024-03-17T07:41:59;6.20;86.20
69261;DHT22;56378;52.404;20.816;2024-03-17T07:44:25;6.40;85.60
69261;DHT22;56378;52.404;20.816;2024-03-17T07:46:54;6.60;84.10
69261;DHT22;56378;52.404;20.816;2024-03-17T07:49:20;6.60;83.30
69261;DHT22;56378;52.404;20.816;2024-03-17T07:51:47;6.70;83.50
69261;DHT22;56378;52.404;20.816;2024-03-17T07:54:13;6.70;84.10
69261;DHT22;56378;52.404;20.816;2024-03-17T07:56:39;6.70;83.70
69261;DHT22;56378;52.404;20.816;2024-03-17T07:59:04;6.70;83.90
69261;DHT22;56378;52.404;20.816;2024-03-17T08:01:38;6.70;83.70
69261;DHT22;56378;52.404;20.816;2024-03-17T08:04:04;6.70;83.70
69261;DHT22;56378;52.404;20.816;2024-03-17T08:06:30;6.60;83.20
69261;DHT22;56378;52.404;20.816;2024-03-17T08:08:56;6.60;82.80
69261;DHT22;56378;52.404;20.816;2024-03-17T08:11:23;6.70;83.60
69261;DHT22;56378;52.404;20.816;2024-03-17T08:13:50;6.80;83.20
69261;DHT22;56378;52.404;20.816;2024-03-17T08:16:15;7.00;82.10
69261;DHT22;56378;52.404;20.816;2024-03-17T08:18:42;7.20;81.10
69261;DHT22;56378;52.404;20.816;2024-03-17T08:21:08;7.20;80.80
69261;DHT22;56378;52.404;20.816;2024-03-17T08:23:35;7.20;80.80
69261;DHT22;56378;52.404;20.816;2024-03-17T08:26:12;7.20;81.20
69261;DHT22;56378;52.404;20.816;2024-03-17T08:28:38;7.20;80.20
69261;DHT22;56378;52.404;20.816;2024-03-17T08:31:04;7.10;80.80
69261;DHT22;56378;52.404;20.816;2024-03-17T08:33:30;7.10;80.90
69261;DHT22;56378;52.404;20.816;2024-03-17T08:36:05;7.10;80.30
69261;DHT22;56378;52.404;20.816;2024-03-17T08:38:33;6.90;79.30
69261;DHT22;56378;52.404;20.816;2024-03-17T08:41:06;6.80;81.50
69261;DHT22;56378;52.404;20.816;2024-03-17T08:43:33;6.70;82.30
69261;DHT22;56378;52.404;20.816;2024-03-17T08:46:03;6.40;82.20
69261;DHT22;56378;52.404;20.816;2024-03-17T08:48:32;6.20;81.90
69261;DHT22;56378;52.404;20.816;2024-03-17T08:51:00;6.10;81.30
69261;DHT22;56378;52.404;20.816;2024-03-17T08:53:26;6.00;81.60
69261;DHT22;56378;52.404;20.816;2024-03-17T08:55:52;5.90;82.30
69261;DHT22;56378;52.404;20.816;2024-03-17T08:58:19;5.80;83.40
69261;DHT22;56378;52.404;20.816;2024-03-17T09:00:45;5.70;84.00
69261;DHT22;56378;52.404;20.816;2024-03-17T09:03:11;5.70;83.10
69261;DHT22;56378;52.404;20.816;2024-03-17T09:05:39;5.70;83.90
69261;DHT22;56378;52.404;20.816;2024-03-17T09:08:09;5.70;85.00
69261;DHT22;56378;52.404;20.816;2024-03-17T09:10:40;5.70;85.70
69261;DHT22;56378;52.404;20.816;2024-03-17T09:13:07;5.70;85.90
69261;DHT22;56378;52.404;20.816;2024-03-17T09:15:33;5.80;86.60
69261;DHT22;56378;52.404;20.816;2024-03-17T09:17:59;5.90;86.90
69261;DHT22;56378;52.404;20.816;2024-03-17T09:20:25;6.00;85.20
69261;DHT22;56378;52.404;20.816;2024-03-17T09:22:51;6.20;84.50
69261;DHT22;56378;52.404;20.816;2024-03-17T09:25:16;6.50;84.30
69261;DHT22;56378;52.404;20.816;2024-03-17T09:27:42;6.80;83.60
69261;DHT22;56378;52.404;20.816;2024-03-17T09:30:08;7.20;82.30
69261;DHT22;56378;52.404;20.816;2024-03-17T09:32:37;7.40;80.20
69261;DHT22;56378;52.404;20.816;2024-03-17T09:35:04;7.60;79.80
69261;DHT22;56378;52.404;20.816;2024-03-17T09:37:31;7.60;79.70
69261;DHT22;56378;52.404;20.816;2024-03-17T09:39:57;7.50;79.20
69261;DHT22;56378;52.404;20.816;2024-03-17T09:42:26;7.30;79.20
69261;DHT22;56378;52.404;20.816;2024-03-17T09:44:55;7.20;80.30
69261;DHT22;56378;52.404;20.816;2024-03-17T09:47:24;7.00;81.80
69261;DHT22;56378;52.404;20.816;2024-03-17T09:49:52;6.90;81.40
69261;DHT22;56378;52.404;20.816;2024-03-17T09:52:21;6.70;81.60
69261;DHT22;56378;52.404;20.816;2024-03-17T09:54:59;6.70;83.20
69261;DHT22;56378;52.404;20.816;2024-03-17T09:57:27;6.50;83.70
69261;DHT22;56378;52.404;20.816;2024-03-17T09:59:55;6.40;84.60
69261;DHT22;56378;52.404;20.816;2024-03-17T10:02:21;6.30;84.70
69261;DHT22;56378;52.404;20.816;2024-03-17T10:04:47;6.20;85.40
69261;DHT22;56378;52.404;20.816;2024-03-17T10:07:13;6.10;85.80
69261;DHT22;56378;52.404;20.816;2024-03-17T10:09:43;6.00;86.50
69261;DHT22;56378;52.404;20.816;2024-03-17T10:12:28;5.90;86.80
69261;DHT22;56378;52.404;20.816;2024-03-17T10:15:01;5.80;87.50
69261;DHT22;56378;52.404;20.816;2024-03-17T10:17:33;5.80;87.30
69261;DHT22;56378;52.404;20.816;2024-03-17T10:20:13;5.80;87.00
69261;DHT22;56378;52.404;20.816;2024-03-17T10:23:03;5.80;86.40
69261;DHT22;56378;52.404;20.816;2024-03-17T10:25:28;5.80;86.90
69261;DHT22;56378;52.404;20.816;2024-03-17T10:27:55;5.70;87.70
69261;DHT22;56378;52.404;20.816;2024-03-17T10:30:22;5.70;87.20
69261;DHT22;56378;52.404;20.816;2024-03-17T10:32:59;5.60;86.80
69261;DHT22;56378;52.404;20.816;2024-03-17T10:35:36;5.50;87.90
69261;DHT22;56378;52.404;20.816;2024-03-17T10:38:08;5.40;89.10
69261;DHT22;56378;52.404;20.816;2024-03-17T10:40:35;5.40;89.70
69261;DHT22;56378;52.404;20.816;2024-03-17T10:43:04;5.30;90.00
69261;DHT22;56378;52.404;20.816;2024-03-17T10:45:32;5.40;89.50
69261;DHT22;56378;52.404;20.816;2024-03-17T10:48:08;5.40;88.30
69261;DHT22;56378;52.404;20.816;2024-03-17T10:50:38;5.40;88.10
69261;DHT22;56378;52.404;20.816;2024-03-17T10:53:06;5.40;87.30
69261;DHT22;56378;52.404;20.816;2024-03-17T10:55:45;5.50;87.70
69261;DHT22;56378;52.404;20.816;2024-03-17T10:58:28;5.50;87.20
69261;DHT22;56378;52.404;20.816;2024-03-17T11:01:01;5.60;87.10
69261;DHT22;56378;52.404;20.816;2024-03-17T11:03:34;5.70;88.70
69261;DHT22;56378;52.404;20.816;2024-03-17T11:06:04;5.70;88.30
69261;DHT22;56378;52.404;20.816;2024-03-17T11:08:32;5.70;88.40
69261;DHT22;56378;52.404;20.816;2024-03-17T11:10:59;5.70;87.80
69261;DHT22;56378;52.404;20.816;2024-03-17T11:13:30;5.70;89.30
69261;DHT22;56378;52.404;20.816;2024-03-17T11:15:57;5.80;92.50
69261;DHT22;56378;52.404;20.816;2024-03-17T11:18:29;5.70;94.40
69261;DHT22;56378;52.404;20.816;2024-03-17T11:21:02;5.60;95.80
69261;DHT22;56378;52.404;20.816;2024-03-17T11:23:34;5.50;96.90
69261;DHT22;56378;52.404;20.816;2024-03-17T11:26:03;5.30;99.90
69261;DHT22;56378;52.404;20.816;2024-03-17T11:31:42;5.30;99.90
69261;DHT22;56378;52.404;20.816;2024-03-17T11:34:36;5.30;99.90
69261;DHT22;56378;52.404;20.816;2024-03-17T11:37:05;5.40;99.20
69261;DHT22;56378;52.404;20.816;2024-03-17T11:39:48;5.50;98.30
69261;DHT22;56378;52.404;20.816;2024-03-17T11:42:34;5.70;95.80
69261;DHT22;56378;52.404;20.816;2024-03-17T11:45:01;5.90;94.40
69261;DHT22;56378;52.404;20.816;2024-03-17T11:47:44;6.10;94.00
69261;DHT22;56378;52.404;20.816;2024-03-17T11:50:10;6.30;92.00
69261;DHT22;56378;52.404;20.816;2024-03-17T11:52:38;6.50;90.40
69261;DHT22;56378;52.404;20.816;2024-03-17T11:55:16;6.70;87.40
69261;DHT22;56378;52.404;20.816;2024-03-17T11:57:43;6.70;84.80
69261;DHT22;56378;52.404;20.816;2024-03-17T12:00:22;6.80;85.70
69261;DHT22;56378;52.404;20.816;2024-03-17T12:02:49;7.00;84.40
69261;DHT22;56378;52.404;20.816;2024-03-17T12:05:15;7.20;83.20
69261;DHT22;56378;52.404;20.816;2024-03-17T12:07:45;7.30;81.70
69261;DHT22;56378;52.404;20.816;2024-03-17T12:10:11;7.50;81.40
69261;DHT22;56378;52.404;20.816;2024-03-17T12:12:39;7.60;79.60
69261;DHT22;56378;52.404;20.816;2024-03-17T12:15:19;7.60;79.60
69261;DHT22;56378;52.404;20.816;2024-03-17T12:17:46;7.50;78.60
69261;DHT22;56378;52.404;20.816;2024-03-17T12:20:19;7.40;78.80
69261;DHT22;56378;52.404;20.816;2024-03-17T12:22:47;7.20;77.60
69261;DHT22;56378;52.404;20.816;2024-03-17T12:25:20;7.10;77.60
69261;DHT22;56378;52.404;20.816;2024-03-17T12:27:47;6.90;78.40
69261;DHT22;56378;52.404;20.816;2024-03-17T12:30:14;6.90;79.80
69261;DHT22;56378;52.404;20.816;2024-03-17T12:32:41;6.90;80.50
69261;DHT22;56378;52.404;20.816;2024-03-17T12:35:15;6.90;82.20
69261;DHT22;56378;52.404;20.816;2024-03-17T12:37:44;6.90;81.40
69261;DHT22;56378;52.404;20.816;2024-03-17T12:40:18;6.80;82.80
69261;DHT22;56378;52.404;20.816;2024-03-17T12:42:48;6.70;83.80
69261;DHT22;56378;52.404;20.816;2024-03-17T12:45:19;6.60;85.50
69261;DHT22;56378;52.404;20.816;2024-03-17T12:47:48;6.50;88.30
69261;DHT22;56378;52.404;20.816;2024-03-17T12:50:14;6.30;89.90
69261;DHT22;56378;52.404;20.816;2024-03-17T12:52:52;6.00;92.50
69261;DHT22;56378;52.404;20.816;2024-03-17T12:55:19;5.80;93.80
69261;DHT22;56378;52.404;20.816;2024-03-17T13:00:58;5.50;95.10
69261;DHT22;56378;52.404;20.816;2024-03-17T13:03:26;5.40;94.60
69261;DHT22;56378;52.404;20.816;2024-03-17T13:05:52;5.30;96.30
69261;DHT22;56378;52.404;20.816;2024-03-17T13:08:18;5.20;97.80
69261;DHT22;56378;52.404;20.816;2024-03-17T13:10:44;5.10;99.30
69261;DHT22;56378;52.404;20.816;2024-03-17T13:13:12;4.90;99.90
69261;DHT22;56378;52.404;20.816;2024-03-17T13:15:42;4.90;99.90
69261;DHT22;56378;52.404;20.816;2024-03-17T13:18:08;4.80;99.90
69261;DHT22;56378;52.404;20.816;2024-03-17T13:20:34;4.70;99.90
69261;DHT22;56378;52.404;20.816;2024-03-17T13:23:01;4.60;99.90
69261;DHT22;56378;52.404;20.816;2024-03-17T13:25:28;4.50;99.90
69261;DHT22;56378;52.404;20.816;2024-03-17T13:28:04;4.40;99.90
69261;DHT22;56378;52.404;20.816;2024-03-17T13:30:30;4.30;99.90
69261;DHT22;56378;52.404;20.816;2024-03-17T13:32:59;4.30;99.90
69261;DHT22;56378;52.404;20.816;2024-03-17T13:35:29;4.30;99.90
69261;DHT22;56378;52.404;20.816;2024-03-17T13:37:56;4.30;99.90
69261;DHT22;56378;52.404;20.816;2024-03-17T13:40:27;4.30;99.90
69261;DHT22;56378;52.404;20.816;2024-03-17T13:42:54;4.30;99.90
69261;DHT22;56378;52.404;20.816;2024-03-17T13:45:22;4.30;99.90
69261;DHT22;56378;52.404;20.816;2024-03-17T13:48:02;4.30;99.90
69261;DHT22;56378;52.404;20.816;2024-03-17T13:50:29;4.30;99.90
69261;DHT22;56378;52.404;20.816;2024-03-17T13:52:56;4.40;99.90
69261;DHT22;56378;52.404;20.816;2024-03-17T13:55:23;4.40;99.90
69261;DHT22;56378;52.404;20.816;2024-03-17T13:57:54;4.40;99.90
69261;DHT22;56378;52.404;20.816;2024-03-17T14:00:23;4.50;99.90
69261;DHT22;56378;52.404;20.816;2024-03-17T14:02:51;4.40;99.90
69261;DHT22;56378;52.404;20.816;2024-03-17T14:05:20;4.40;99.90
69261;DHT22;56378;52.404;20.816;2024-03-17T14:07:46;4.30;99.90
69261;DHT22;56378;52.404;20.816;2024-03-17T14:10:15;4.30;99.90
69261;DHT22;56378;52.404;20.816;2024-03-17T14:12:42;4.20;99.90
69261;DHT22;56378;52.404;20.816;2024-03-17T14:15:09;4.20;99.90
69261;DHT22;56378;52.404;20.816;2024-03-17T14:17:43;4.10;99.90
69261;DHT22;56378;52.404;20.816;2024-03-17T14:20:09;4.10;99.90
69261;DHT22;56378;52.404;20.816;2024-03-17T14:22:40;4.10;99.90
69261;DHT22;56378;52.404;20.816;2024-03-17T14:25:07;4.10;99.90
69261;DHT22;56378;52.404;20.816;2024-03-17T14:27:36;4.10;99.90
69261;DHT22;56378;52.404;20.816;2024-03-17T14:30:02;4.10;99.90
69261;DHT22;56378;52.404;20.816;2024-03-17T14:32:30;4.00;99.90
69261;DHT22;56378;52.404;20.816;2024-03-17T14:34:56;4.00;99.90
69261;DHT22;56378;52.404;20.816;2024-03-17T14:37:22;4.00;99.90
69261;DHT22;56378;52.404;20.816;2024-03-17T14:39:49;3.90;99.90
69261;DHT22;56378;52.404;20.816;2024-03-17T14:42:15;3.80;99.90
69261;DHT22;56378;52.404;20.816;2024-03-17T14:44:41;3.80;99.90
69261;DHT22;56378;52.404;20.816;2024-03-17T14:47:07;3.70;99.90
69261;DHT22;56378;52.404;20.816;2024-03-17T14:49:33;3.60;99.90
69261;DHT22;56378;52.404;20.816;2024-03-17T14:51:59;3.60;99.90
69261;DHT22;56378;52.404;20.816;2024-03-17T14:54:26;3.50;99.90
69261;DHT22;56378;52.404;20.816;2024-03-17T14:56:52;3.40;99.90
69261;DHT22;56378;52.404;20.816;2024-03-17T14:59:19;3.40;99.90
69261;DHT22;56378;52.404;20.816;2024-03-17T15:01:46;3.30;99.90
69261;DHT22;56378;52.404;20.816;2024-03-17T15:04:13;3.30;99.90
69261;DHT22;56378;52.404;20.816;2024-03-17T15:06:41;3.20;99.90
69261;DHT22;56378;52.404;20.816;2024-03-17T15:09:07;3.20;99.90
69261;DHT22;56378;52.404;20.816;2024-03-17T15:11:33;3.10;99.90
69261;DHT22;56378;52.404;20.816;2024-03-17T15:13:59;3.00;99.90
69261;DHT22;56378;52.404;20.816;2024-03-17T15:16:25;2.90;99.90
69261;DHT22;56378;52.404;20.816;2024-03-17T15:18:51;2.80;99.90
69261;DHT22;56378;52.404;20.816;2024-03-17T15:21:17;2.80;99.90
69261;DHT22;56378;52.404;20.816;2024-03-17T15:23:42;2.70;99.90
69261;DHT22;56378;52.404;20.816;2024-03-17T15:26:08;2.70;99.90
69261;DHT22;56378;52.404;20.816;2024-03-17T15:28:41;2.60;99.90
69261;DHT22;56378;52.404;20.816;2024-03-17T15:31:11;2.50;99.90
69261;DHT22;56378;52.404;20.816;2024-03-17T15:33:38;2.50;99.90
69261;DHT22;56378;52.404;20.816;2024-03-17T15:36:07;2.40;99.90
69261;DHT22;56378;52.404;20.816;2024-03-17T15:38:37;2.40;99.90
69261;DHT22;56378;52.404;20.816;2024-03-17T15:41:07;2.30;99.90